Time;durP1;ratioP1;P1;durP2;ratioP2;P2;SDS_P1;SDS_P2;PMS_P1;PMS_P2;Temp;Humidity;BMP_temperature;BMP_pressure;BME280_temperature;BME280_humidity;BME280_pressure;Samples;Min_cycle;Max_cycle;Signal;HPM_P1;HPM_P2
2023/01/09 00:00:08;;;;;;;0.60;0.50;;;;;;;10.20;85.35;98604.50;5014459;28;20415;-74
2023/01/09 00:02:33;;;;;;;0.30;0.30;;;;;;;10.19;85.32;98609.09;5014055;28;20416;-74
2023/01/09 00:04:58;;;;;;;2.20;0.40;;;;;;;10.20;85.39;98613.41;5014042;28;20486;-74
2023/01/09 00:07:24;;;;;;;1.40;0.30;;;;;;;10.21;85.34;98606.91;5015411;28;20404;-74
2023/01/09 00:09:49;;;;;;;0.30;0.30;;;;;;;10.19;85.29;98602.88;5014557;28;20400;-74
2023/01/09 00:12:14;;;;;;;0.27;0.27;;;;;;;10.20;85.15;98599.06;5013326;28;20393;-74
2023/01/09 00:14:40;;;;;;;0.10;0.10;;;;;;;10.20;85.15;98601.78;4997058;28;20764;-74
2023/01/09 00:17:05;;;;;;;0.57;0.30;;;;;;;10.23;85.17;98599.31;4996517;28;20397;-74
2023/01/09 00:19:30;;;;;;;0.57;0.27;;;;;;;10.29;85.09;98598.16;5014318;28;20826;-74
2023/01/09 00:21:55;;;;;;;0.10;0.10;;;;;;;10.27;85.09;98591.41;5014437;28;20421;-74
2023/01/09 00:24:20;;;;;;;0.22;0.22;;;;;;;10.24;85.30;98592.00;5014585;28;20400;-75
2023/01/09 00:26:46;;;;;;;0.30;0.30;;;;;;;10.24;85.25;98587.38;5014089;28;20405;-74
2023/01/09 00:29:11;;;;;;;0.93;0.20;;;;;;;10.26;85.60;98589.78;5013983;28;20781;-74
2023/01/09 00:31:36;;;;;;;0.83;0.33;;;;;;;10.24;85.55;98581.94;5012179;28;20398;-74
2023/01/09 00:34:04;;;;;;;0.30;0.30;;;;;;;10.24;85.79;98575.75;5014057;28;20401;-74
2023/01/09 00:36:30;;;;;;;0.93;0.20;;;;;;;10.26;85.67;98573.56;5013931;28;20806;-74
2023/01/09 00:38:56;;;;;;;1.60;0.30;;;;;;;10.29;85.72;98578.38;5013523;28;20516;-74
2023/01/09 00:41:36;;;;;;;0.60;0.30;;;;;;;10.29;85.49;98570.28;5014460;28;20437;-74
2023/01/09 00:44:09;;;;;;;0.20;0.20;;;;;;;10.26;85.95;98568.94;5013832;28;20456;-74
2023/01/09 00:46:38;;;;;;;0.20;0.20;;;;;;;10.26;85.95;98566.25;5013716;28;20450;-74
2023/01/09 00:49:06;;;;;;;0.20;0.17;;;;;;;10.24;86.06;98575.75;5013762;28;20416;-74
2023/01/09 00:51:31;;;;;;;0.63;0.50;;;;;;;10.25;85.94;98580.88;5013690;28;20408;-74
2023/01/09 00:53:57;;;;;;;0.20;0.20;;;;;;;10.24;86.06;98579.25;5013299;28;20415;-74
2023/01/09 00:56:22;;;;;;;0.90;0.20;;;;;;;10.25;85.84;98588.19;5013509;28;20903;-74
2023/01/09 00:58:50;;;;;;;0.20;0.20;;;;;;;10.25;85.95;98585.47;5012819;28;20397;-74
2023/01/09 01:01:15;;;;;;;0.30;0.30;;;;;;;10.24;85.85;98590.06;4995653;28;21001;-74
2023/01/09 01:03:40;;;;;;;0.30;0.30;;;;;;;10.22;85.78;98588.75;4995720;28;20412;-74
2023/01/09 01:08:49;;;;;;;0.25;0.25;;;;;;;10.20;85.70;98577.41;5013182;28;20475;-74
2023/01/09 01:11:15;;;;;;;0.28;0.10;;;;;;;10.18;85.87;98574.19;4994444;28;20879;-74
2023/01/09 01:13:41;;;;;;;0.40;0.40;;;;;;;10.19;85.74;98573.09;5012450;28;20407;-74
2023/01/09 01:16:09;;;;;;;0.40;0.10;;;;;;;10.21;85.54;98579.81;5013064;28;20393;-74
2023/01/09 01:18:34;;;;;;;1.23;0.30;;;;;;;10.20;85.38;98588.25;5012671;28;20483;-74
2023/01/09 01:20:59;;;;;;;0.40;0.20;;;;;;;10.18;85.42;98588.53;5013059;28;20500;-74
2023/01/09 01:23:25;;;;;;;0.30;0.30;;;;;;;10.18;85.54;98588.53;4995618;28;20484;-75
2023/01/09 01:25:50;;;;;;;0.27;0.27;;;;;;;10.18;85.39;98590.41;5012985;28;20471;-74
2023/01/09 01:28:16;;;;;;;0.10;0.10;;;;;;;10.16;85.34;98582.59;5012873;28;20749;-74
2023/01/09 01:30:42;;;;;;;0.20;0.20;;;;;;;10.15;84.86;98591.00;5012726;28;20408;-74
2023/01/09 01:33:09;;;;;;;0.20;0.10;;;;;;;10.17;84.83;98591.53;5012638;28;20444;-74
2023/01/09 01:35:35;;;;;;;0.20;0.20;;;;;;;10.16;84.73;98606.16;5012647;28;20764;-74
2023/01/09 01:38:00;;;;;;;0.70;0.70;;;;;;;10.19;84.86;98608.28;5012970;28;20396;-74
2023/01/09 01:40:26;;;;;;;0.30;0.30;;;;;;;10.16;84.88;98612.38;5012348;28;20396;-74
2023/01/09 01:42:53;;;;;;;0.20;0.20;;;;;;;10.17;84.56;98614.00;5012709;28;20412;-74
2023/01/09 01:45:24;;;;;;;0.28;0.28;;;;;;;10.18;84.70;98601.25;5012669;28;20493;-74
2023/01/09 01:47:58;;;;;;;0.30;0.20;;;;;;;10.20;84.68;98601.78;5011254;28;20433;-74
2023/01/09 01:50:46;;;;;;;0.70;0.40;;;;;;;10.19;84.57;98600.97;5013160;28;20400;-74
2023/01/09 01:53:22;;;;;;;0.20;0.20;;;;;;;10.21;84.58;98609.59;5012441;28;20567;-74
2023/01/09 01:56:02;;;;;;;0.32;0.32;;;;;;;10.21;84.78;98609.59;5011523;28;20408;-74
2023/01/09 01:58:28;;;;;;;1.50;0.30;;;;;;;10.22;84.74;98605.00;4994959;28;20417;-74
2023/01/09 02:00:54;;;;;;;2.30;0.40;;;;;;;10.24;84.71;98602.81;5011769;28;20405;-73
2023/01/09 02:03:24;;;;;;;1.30;0.50;;;;;;;10.24;84.62;98598.19;5012232;28;20420;-74
2023/01/09 02:05:49;;;;;;;0.20;0.20;;;;;;;10.22;84.50;98597.69;5012358;28;20405;-74
2023/01/09 02:08:15;;;;;;;0.20;0.20;;;;;;;10.22;84.42;98605.81;5012470;28;20462;-74
2023/01/09 02:10:41;;;;;;;1.50;0.30;;;;;;;10.24;84.34;98598.19;5011756;28;20408;-74
2023/01/09 02:13:07;;;;;;;0.57;0.30;;;;;;;10.26;84.29;98609.56;5011542;28;20500;-74
2023/01/09 02:16:05;;;;;;;0.20;0.20;;;;;;;10.25;84.43;98618.75;5011674;28;20765;-74
2023/01/09 02:18:51;;;;;;;0.80;0.20;;;;;;;10.27;84.51;98621.97;4994891;28;20411;-74
2023/01/09 02:21:28;;;;;;;0.55;0.30;;;;;;;10.26;84.39;98623.09;4994379;28;20979;-74
2023/01/09 02:23:53;;;;;;;0.22;0.22;;;;;;;10.28;84.30;98625.50;5010729;28;20918;-74
2023/01/09 02:26:34;;;;;;;0.80;0.23;;;;;;;10.27;84.56;98630.09;4993569;28;20405;-74
2023/01/09 02:29:42;;;;;;;0.60;0.30;;;;;;;10.27;84.60;98629.31;4994390;28;20756;-74
2023/01/09 02:32:41;;;;;;;0.30;0.30;;;;;;;10.27;84.74;98637.44;4994030;28;20409;-74
2023/01/09 02:35:33;;;;;;;0.45;0.45;;;;;;;10.26;84.85;98641.22;5008597;28;20752;-74
2023/01/09 02:38:16;;;;;;;0.80;0.60;;;;;;;10.27;85.01;98651.75;5011948;28;20415;-74
2023/01/09 02:41:07;;;;;;;0.47;0.47;;;;;;;10.22;85.24;98643.72;5010941;28;20470;-74
2023/01/09 02:43:32;;;;;;;0.60;0.60;;;;;;;10.18;85.30;98656.19;5004975;28;20428;-74
2023/01/09 02:45:58;;;;;;;0.53;0.53;;;;;;;10.19;85.94;98670.53;5011253;28;20396;-74
2023/01/09 02:48:23;;;;;;;0.60;0.60;;;;;;;10.15;86.03;98681.13;4993666;28;20463;-74
2023/01/09 02:51:14;;;;;;;1.60;0.67;;;;;;;10.13;86.01;98698.72;5011390;28;20404;-74
2023/01/09 02:54:01;;;;;;;0.90;0.43;;;;;;;10.04;85.99;98714.78;4993936;28;20444;-74
2023/01/09 02:56:43;;;;;;;0.10;0.10;;;;;;;9.83;85.11;98708.72;4993815;28;20412;-74
2023/01/09 02:59:28;;;;;;;1.40;0.20;;;;;;;9.61;84.76;98712.94;5012304;28;20401;-74
2023/01/09 03:02:18;;;;;;;1.50;0.10;;;;;;;9.52;85.18;98725.41;5010795;28;20879;-74
2023/01/09 03:05:10;;;;;;;2.30;0.10;;;;;;;9.46;84.92;98718.41;5007332;28;20898;-74
2023/01/09 03:07:42;;;;;;;0.80;0.50;;;;;;;9.41;85.17;98727.38;5011338;28;20424;-74
2023/01/09 03:10:17;;;;;;;0.73;0.60;;;;;;;9.33;85.17;98725.25;5010063;28;20412;-74
2023/01/09 03:12:45;;;;;;;0.60;0.50;;;;;;;9.29;85.07;98738.50;4993888;28;20903;-74
2023/01/09 03:15:13;;;;;;;4.43;0.80;;;;;;;9.27;84.70;98734.47;5011604;28;20409;-74
2023/01/09 03:17:42;;;;;;;1.92;0.43;;;;;;;9.22;84.68;98746.13;5010859;28;20416;-74
2023/01/09 03:20:12;;;;;;;2.40;0.40;;;;;;;9.21;84.44;98759.94;5011230;28;20448;-74
2023/01/09 03:22:54;;;;;;;3.72;1.20;;;;;;;9.20;84.39;98750.19;5014382;28;20769;-74
2023/01/09 03:25:20;;;;;;;5.43;2.10;;;;;;;9.19;84.07;98767.47;5015053;28;20439;-74
2023/01/09 03:27:45;;;;;;;5.80;1.60;;;;;;;9.20;83.84;98769.91;5014700;28;20401;-74
2023/01/09 03:30:10;;;;;;;2.30;1.40;;;;;;;9.22;84.18;98783.94;5014525;28;20947;-74
2023/01/09 03:32:36;;;;;;;4.10;1.90;;;;;;;9.17;83.98;98788.59;5015519;28;20401;-74
2023/01/09 03:35:01;;;;;;;8.93;2.97;;;;;;;9.17;83.94;98802.09;5015221;28;20403;-74
2023/01/09 03:37:26;;;;;;;7.87;1.63;;;;;;;9.15;83.99;98809.69;5014967;28;20408;-74
2023/01/09 03:39:52;;;;;;;13.17;3.63;;;;;;;9.11;84.41;98822.94;4997543;28;20725;-74
2023/01/09 03:42:17;;;;;;;10.43;3.40;;;;;;;9.16;84.19;98828.31;5014479;28;20432;-74
2023/01/09 03:44:42;;;;;;;4.90;2.97;;;;;;;9.20;83.91;98839.38;5014695;28;20442;-74
2023/01/09 03:47:07;;;;;;;1.90;1.80;;;;;;;9.20;83.64;98839.38;5015031;28;20409;-74
2023/01/09 03:49:33;;;;;;;0.60;0.60;;;;;;;9.19;83.46;98853.97;5015093;28;20420;-74
2023/01/09 03:51:58;;;;;;;4.37;2.13;;;;;;;9.14;83.64;98859.41;4997369;28;20409;-74
2023/01/09 03:54:23;;;;;;;1.73;0.80;;;;;;;9.14;83.13;98860.22;5014755;28;20412;-74
2023/01/09 03:56:49;;;;;;;0.77;0.40;;;;;;;9.09;83.23;98875.63;5014567;28;20408;-74
2023/01/09 03:59:14;;;;;;;7.63;2.45;;;;;;;9.08;83.07;98871.31;4997116;28;20741;-74
2023/01/09 04:01:39;;;;;;;3.33;1.33;;;;;;;9.07;82.47;98865.09;5014209;28;20413;-74
2023/01/09 04:04:04;;;;;;;1.07;0.60;;;;;;;9.01;81.72;98868.88;4997242;28;20487;-74
2023/01/09 04:06:30;;;;;;;0.27;0.23;;;;;;;9.01;81.92;98868.88;5015148;28;20416;-74
2023/01/09 04:08:55;;;;;;;0.30;0.20;;;;;;;8.98;81.85;98879.44;4996876;28;20419;-74
2023/01/09 04:11:21;;;;;;;0.90;0.30;;;;;;;8.94;82.00;98889.97;5014414;28;20396;-74
2023/01/09 04:13:47;;;;;;;0.55;0.30;;;;;;;8.94;81.68;98889.97;5014261;28;20454;-74
2023/01/09 04:16:12;;;;;;;0.87;0.43;;;;;;;8.96;81.48;98901.31;5014397;28;20401;-74
2023/01/09 04:18:37;;;;;;;1.10;0.73;;;;;;;8.97;81.60;98902.94;4996870;28;20792;-74
2023/01/09 04:21:02;;;;;;;0.37;0.37;;;;;;;8.93;81.86;98906.44;5013932;28;20409;-74
2023/01/09 04:23:27;;;;;;;1.57;0.40;;;;;;;9.00;81.49;98906.97;5014745;28;20706;-74
2023/01/09 04:25:53;;;;;;;0.90;0.20;;;;;;;8.94;81.47;98911.59;5013642;28;20401;-74
2023/01/09 04:28:18;;;;;;;1.40;0.50;;;;;;;8.97;81.16;98916.44;5014104;28;20416;-74
2023/01/09 04:30:43;;;;;;;0.77;0.50;;;;;;;8.94;81.34;98921.56;5014082;28;20462;-74
2023/01/09 04:33:09;;;;;;;0.80;0.53;;;;;;;8.87;81.13;98927.25;4996330;28;20420;-74
2023/01/09 04:35:34;;;;;;;0.67;0.30;;;;;;;8.79;81.03;98925.88;5011211;28;20424;-74
2023/01/09 04:37:59;;;;;;;0.70;0.20;;;;;;;8.79;81.34;98934.00;5007167;28;21041;-74
2023/01/09 04:40:25;;;;;;;0.28;0.28;;;;;;;8.81;80.88;98944.53;5012996;28;20417;-74
2023/01/09 04:42:50;;;;;;;0.90;0.50;;;;;;;8.81;80.91;98942.66;5013441;28;20428;-74
2023/01/09 04:45:16;;;;;;;0.90;0.30;;;;;;;8.83;80.89;98948.59;5013504;28;20729;-74
2023/01/09 04:47:41;;;;;;;0.50;0.50;;;;;;;8.79;80.48;98957.53;5013889;28;20408;-74
2023/01/09 04:50:08;;;;;;;0.73;0.20;;;;;;;8.74;80.27;98963.72;5011748;28;20443;-74
2023/01/09 04:52:33;;;;;;;1.30;0.28;;;;;;;8.73;80.61;98959.38;5013271;28;20822;-74
2023/01/09 04:54:59;;;;;;;0.40;0.13;;;;;;;8.76;80.60;98966.94;5011949;28;20527;-74
2023/01/09 04:57:24;;;;;;;1.65;0.20;;;;;;;8.77;80.52;98973.97;5014004;28;20791;-74
2023/01/09 04:59:49;;;;;;;1.03;0.50;;;;;;;8.71;80.07;98975.06;5013157;28;20474;-74
2023/01/09 05:02:14;;;;;;;0.97;0.20;;;;;;;8.70;79.38;98959.13;5013123;28;20775;-74
2023/01/09 05:04:40;;;;;;;0.70;0.30;;;;;;;8.71;79.28;98975.06;4995801;28;20413;-75
2023/01/09 05:07:06;;;;;;;0.55;0.10;;;;;;;8.68;79.08;98978.31;5008982;28;20433;-74
2023/01/09 05:09:31;;;;;;;0.15;0.10;;;;;;;8.65;79.02;98983.44;5008829;28;20419;-75
2023/01/09 05:11:56;;;;;;;0.10;0.10;;;;;;;8.61;78.79;98991.25;5009883;28;20413;-74
2023/01/09 05:14:21;;;;;;;0.20;0.20;;;;;;;8.60;78.84;98992.31;5015468;28;20496;-74
2023/01/09 05:16:47;;;;;;;0.80;0.20;;;;;;;8.59;79.27;98989.91;5009140;28;20420;-74
2023/01/09 05:19:12;;;;;;;0.80;0.30;;;;;;;8.52;78.89;98987.47;5011848;28;20496;-74
2023/01/09 05:21:37;;;;;;;0.40;0.10;;;;;;;8.50;78.49;98983.38;5011979;28;20508;-74
2023/01/09 05:24:03;;;;;;;0.17;0.10;;;;;;;8.48;78.53;98985.53;5011249;28;21097;-74
2023/01/09 05:26:28;;;;;;;0.10;0.10;;;;;;;8.47;78.16;98992.84;5010373;28;20770;-74
2023/01/09 05:28:56;;;;;;;1.47;0.20;;;;;;;8.46;78.55;98983.13;5012115;28;20471;-75
2023/01/09 05:31:24;;;;;;;0.20;0.20;;;;;;;8.41;77.68;98993.91;5013113;28;20492;-74
2023/01/09 05:33:49;;;;;;;1.40;0.20;;;;;;;8.39;78.19;99000.66;5013120;28;20413;-74
2023/01/09 05:36:15;;;;;;;0.13;0.13;;;;;;;8.36;77.91;99007.41;5009381;28;20738;-74
2023/01/09 05:38:40;;;;;;;0.57;0.27;;;;;;;8.39;77.74;99000.66;5011150;28;20496;-74
2023/01/09 05:41:06;;;;;;;0.40;0.10;;;;;;;8.45;77.87;99004.97;5012882;28;20431;-75
2023/01/09 05:43:31;;;;;;;0.40;0.20;;;;;;;8.52;77.57;99011.75;5011802;28;20482;-75
2023/01/09 05:45:57;;;;;;;1.80;0.20;;;;;;;8.55;77.69;99011.22;5012595;28;20404;-74
2023/01/09 05:48:22;;;;;;;3.20;0.20;;;;;;;8.65;77.56;99024.75;5011687;28;20414;-74
2023/01/09 05:50:47;;;;;;;0.20;0.17;;;;;;;8.69;76.78;99028.50;5012714;28;20458;-74
2023/01/09 05:53:13;;;;;;;0.10;0.10;;;;;;;8.70;77.15;99019.34;5010520;28;20452;-75
2023/01/09 05:55:38;;;;;;;0.50;0.40;;;;;;;8.71;76.96;99022.84;5011074;28;20501;-74
2023/01/09 05:58:03;;;;;;;0.50;0.50;;;;;;;8.73;77.74;99026.91;4994252;28;20508;-75
2023/01/09 06:00:29;;;;;;;2.40;0.53;;;;;;;8.77;76.72;99027.19;5010832;28;20408;-73
2023/01/09 06:02:54;;;;;;;0.83;0.23;;;;;;;8.71;76.78;99020.97;5012598;28;20419;-74
2023/01/09 06:05:19;;;;;;;2.00;0.20;;;;;;;8.66;76.87;99023.66;5010619;28;20409;-74
2023/01/09 06:07:44;;;;;;;0.73;0.32;;;;;;;8.69;76.42;99022.31;4995245;28;20447;-74
2023/01/09 06:10:11;;;;;;;1.00;0.40;;;;;;;8.75;76.74;99038.28;5012261;28;20436;-74
2023/01/09 06:12:37;;;;;;;0.38;0.30;;;;;;;8.74;76.31;99035.81;5012807;28;20399;-74
2023/01/09 06:15:03;;;;;;;1.50;0.30;;;;;;;8.75;76.60;99037.47;5009696;28;20802;-75
2023/01/09 06:17:28;;;;;;;2.20;0.47;;;;;;;8.77;76.43;99032.59;5010959;28;20404;-74
2023/01/09 06:19:54;;;;;;;2.20;0.40;;;;;;;8.79;75.74;99038.56;5006616;28;20749;-74
2023/01/09 06:22:19;;;;;;;0.80;0.57;;;;;;;8.75;75.55;99034.75;5012725;28;20514;-74
2023/01/09 06:24:44;;;;;;;1.10;0.50;;;;;;;8.78;75.91;99039.63;5007551;28;20412;-75
2023/01/09 06:27:11;;;;;;;0.80;0.30;;;;;;;8.78;75.59;99034.22;5003658;28;20536;-74
2023/01/09 06:29:37;;;;;;;2.17;0.32;;;;;;;8.71;75.44;99034.47;5011642;28;20466;-75
2023/01/09 06:32:02;;;;;;;1.70;0.60;;;;;;;8.73;75.81;99031.50;5010569;28;20483;-75
2023/01/09 06:34:27;;;;;;;1.70;0.30;;;;;;;8.72;75.27;99041.50;5010167;28;20417;-75
2023/01/09 06:36:52;;;;;;;3.63;0.80;;;;;;;8.72;75.18;99038.00;5010237;28;20424;-74
2023/01/09 06:39:18;;;;;;;2.10;0.57;;;;;;;8.71;74.64;99049.88;5010602;28;20416;-74
2023/01/09 06:41:44;;;;;;;3.30;0.70;;;;;;;8.69;75.01;99055.53;5011475;28;20762;-74
2023/01/09 06:44:09;;;;;;;2.30;0.50;;;;;;;8.75;74.82;99053.66;5011917;28;20411;-74
2023/01/09 06:46:34;;;;;;;1.03;0.47;;;;;;;8.77;74.87;99065.00;5011982;28;20400;-74
2023/01/09 06:49:00;;;;;;;2.50;0.52;;;;;;;8.75;74.47;99059.06;5011096;28;20437;-74
2023/01/09 06:51:25;;;;;;;2.00;0.80;;;;;;;8.78;74.60;99064.75;5008782;28;20415;-74
2023/01/09 06:53:50;;;;;;;2.25;0.43;;;;;;;8.80;74.33;99073.38;5006175;28;20423;-74
2023/01/09 06:56:15;;;;;;;5.50;0.40;;;;;;;8.81;73.68;99068.81;4989247;28;20473;-74
2023/01/09 06:58:41;;;;;;;3.20;0.60;;;;;;;8.80;73.37;99078.78;5012229;28;20401;-74
2023/01/09 07:01:06;;;;;;;2.80;0.70;;;;;;;8.81;73.54;99071.50;4991833;28;20923;-74
2023/01/09 07:03:31;;;;;;;5.20;0.68;;;;;;;8.82;72.85;99071.22;5010548;28;20476;-74
2023/01/09 07:05:56;;;;;;;2.63;0.50;;;;;;;8.90;72.13;99069.06;5011086;28;20425;-74
2023/01/09 07:08:22;;;;;;;6.33;0.87;;;;;;;8.89;72.16;99081.78;5011063;28;20949;-74
2023/01/09 07:10:47;;;;;;;2.20;0.70;;;;;;;8.90;71.84;99077.19;5010197;28;20504;-74
2023/01/09 07:13:12;;;;;;;2.75;0.85;;;;;;;8.94;71.77;99073.69;5016449;28;20500;-74
2023/01/09 07:15:38;;;;;;;2.10;0.50;;;;;;;8.95;71.47;99077.22;5011638;28;20929;-74
2023/01/09 07:18:03;;;;;;;2.53;0.60;;;;;;;8.92;70.90;99075.84;5011633;28;20828;-74
2023/01/09 07:20:28;;;;;;;2.47;0.60;;;;;;;8.93;70.71;99060.44;5008733;28;20439;-74
2023/01/09 07:22:54;;;;;;;3.67;0.87;;;;;;;8.97;70.59;99075.84;4993709;28;20470;-74
2023/01/09 07:25:20;;;;;;;4.53;0.90;;;;;;;8.97;71.08;99067.75;4993875;28;20405;-74
2023/01/09 07:27:45;;;;;;;4.25;1.08;;;;;;;8.98;70.89;99069.38;5010965;28;20408;-74
2023/01/09 07:30:11;;;;;;;2.73;0.43;;;;;;;8.96;71.00;99079.63;5008814;28;20406;-74
2023/01/09 07:32:39;;;;;;;4.43;0.52;;;;;;;9.01;70.94;99079.66;5008783;28;20396;-74
2023/01/09 07:35:05;;;;;;;5.30;0.70;;;;;;;9.02;70.66;99080.47;5010058;28;21425;-74
2023/01/09 07:37:30;;;;;;;3.05;0.68;;;;;;;9.03;69.97;99073.97;5011307;28;20962;-74
2023/01/09 07:39:55;;;;;;;1.73;0.60;;;;;;;9.03;70.29;99079.38;5010302;28;20455;-74
2023/01/09 07:42:20;;;;;;;2.80;0.40;;;;;;;9.01;70.29;99068.84;5011302;28;20850;-74
2023/01/09 07:44:46;;;;;;;1.90;0.40;;;;;;;9.04;70.06;99081.81;5010800;28;20415;-74
2023/01/09 07:47:11;;;;;;;2.00;0.43;;;;;;;9.07;69.79;99078.56;5008756;28;20472;-74
2023/01/09 07:49:36;;;;;;;1.30;0.37;;;;;;;9.13;69.69;99080.19;5010797;28;20404;-74
2023/01/09 07:52:02;;;;;;;2.20;0.50;;;;;;;9.18;69.65;99077.50;5010663;28;20851;-74
2023/01/09 07:54:27;;;;;;;2.70;0.63;;;;;;;9.20;69.17;99083.44;5011239;28;20409;-75
2023/01/09 07:56:52;;;;;;;3.20;0.60;;;;;;;9.16;69.05;99078.84;5009170;28;20408;-75
2023/01/09 07:59:18;;;;;;;0.60;0.30;;;;;;;9.16;69.26;99086.94;5009610;28;20405;-74
2023/01/09 08:01:43;;;;;;;3.33;0.60;;;;;;;9.16;68.96;99093.16;5010871;28;20412;-74
2023/01/09 08:04:08;;;;;;;3.67;0.97;;;;;;;9.20;69.39;99082.63;5011292;28;20424;-74
2023/01/09 08:06:34;;;;;;;2.40;0.47;;;;;;;9.24;68.79;99092.66;5010894;28;20431;-75
2023/01/09 08:08:59;;;;;;;1.93;0.60;;;;;;;9.34;68.96;99094.53;5014013;28;20412;-75
2023/01/09 08:11:25;;;;;;;3.88;0.70;;;;;;;9.41;68.38;99095.09;5014720;28;20397;-74
2023/01/09 08:13:50;;;;;;;1.63;0.45;;;;;;;9.42;68.64;99096.69;5014771;28;20435;-75
2023/01/09 08:16:16;;;;;;;2.43;0.60;;;;;;;9.41;68.56;99103.22;5014283;28;20397;-75
2023/01/09 08:18:41;;;;;;;2.07;0.40;;;;;;;9.45;68.61;99090.75;5008758;28;20401;-74
2023/01/09 08:21:06;;;;;;;4.07;0.60;;;;;;;9.54;68.32;99089.16;5021011;28;20944;-74
2023/01/09 08:23:32;;;;;;;1.83;1.00;;;;;;;9.54;67.97;99094.56;5014424;28;20938;-74
2023/01/09 08:25:57;;;;;;;3.95;0.90;;;;;;;9.55;67.35;99082.63;5014328;28;20404;-74
2023/01/09 08:28:22;;;;;;;3.80;0.40;;;;;;;9.57;67.25;99076.97;5014357;28;20404;-74
2023/01/09 08:30:48;;;;;;;1.65;0.70;;;;;;;9.56;67.66;99084.25;5013837;28;20404;-74
2023/01/09 08:33:14;;;;;;;4.63;0.50;;;;;;;9.55;67.55;99079.94;5014002;28;20415;-74
2023/01/09 08:35:39;;;;;;;2.40;0.50;;;;;;;9.54;67.57;99094.56;5019962;28;20900;-74
2023/01/09 08:38:04;;;;;;;1.93;0.50;;;;;;;9.49;67.42;99078.31;5023573;28;20399;-75
2023/01/09 08:40:29;;;;;;;2.00;0.30;;;;;;;9.48;67.39;99081.31;5017261;28;20886;-74
2023/01/09 08:48:22;;;;;;;1.23;0.25;;;;;;;9.49;67.55;99099.94;5011786;28;20420;-74
2023/01/09 08:50:48;;;;;;;2.30;0.50;;;;;;;9.51;67.42;99094.28;5012437;28;20429;-74
2023/01/09 08:53:14;;;;;;;1.37;0.40;;;;;;;9.60;67.31;99095.34;5013680;28;20400;-74
2023/01/09 08:55:39;;;;;;;2.10;0.30;;;;;;;9.62;67.07;99101.28;5013758;28;20396;-74
2023/01/09 08:58:05;;;;;;;1.63;1.37;;;;;;;9.67;67.18;99104.81;4996465;28;20463;-74
2023/01/09 09:00:30;;;;;;;2.23;1.00;;;;;;;9.70;67.28;99108.88;5013400;28;20756;-74
2023/01/09 09:02:57;;;;;;;1.30;0.80;;;;;;;9.78;67.25;99111.03;5013518;28;20427;-74
2023/01/09 09:05:24;;;;;;;3.40;0.50;;;;;;;9.73;66.92;99097.50;5013283;28;20424;-75
2023/01/09 09:07:52;;;;;;;1.20;0.45;;;;;;;9.75;67.07;99100.75;5013401;28;20416;-74
2023/01/09 09:10:18;;;;;;;2.83;0.85;;;;;;;9.76;67.02;99100.47;5012784;28;20476;-74
2023/01/09 09:12:46;;;;;;;1.63;0.57;;;;;;;9.81;67.00;99105.88;5013250;28;20492;-73
2023/01/09 09:15:11;;;;;;;1.73;0.60;;;;;;;9.77;66.96;99098.59;5012184;28;20748;-74
2023/01/09 09:17:39;;;;;;;1.47;0.50;;;;;;;9.78;67.02;99094.81;5013794;28;20393;-74
2023/01/09 09:20:05;;;;;;;0.90;0.40;;;;;;;9.79;67.19;99091.81;4995090;28;20385;-74
2023/01/09 09:22:30;;;;;;;1.88;0.80;;;;;;;9.88;66.79;99090.16;5013191;28;20455;-74
2023/01/09 09:24:55;;;;;;;1.90;0.50;;;;;;;10.02;66.25;99103.94;5013743;28;20445;-74
2023/01/09 09:27:21;;;;;;;2.70;0.50;;;;;;;10.08;66.29;99094.72;4995810;28;20408;-74
2023/01/09 09:29:46;;;;;;;3.67;1.00;;;;;;;10.20;65.84;99095.28;5013184;28;20764;-74
2023/01/09 09:32:11;;;;;;;4.40;0.90;;;;;;;10.33;64.60;99100.13;5007286;28;20774;-74
2023/01/09 09:34:37;;;;;;;2.23;0.93;;;;;;;10.27;65.00;99098.50;5004179;28;20883;-74
2023/01/09 09:37:02;;;;;;;4.20;0.90;;;;;;;10.34;64.87;99101.72;5012687;28;20416;-74
2023/01/09 09:39:27;;;;;;;2.27;0.90;;;;;;;10.48;64.78;99110.06;5012060;28;20405;-74
2023/01/09 09:45:03;;;;;;;2.25;0.50;;;;;;;10.50;64.05;99097.09;5005813;28;20511;-74
2023/01/09 09:47:56;;;;;;;2.60;0.73;;;;;;;10.50;64.16;99107.91;5012293;28;20424;-74
2023/01/09 09:50:38;;;;;;;7.57;0.88;;;;;;;10.61;63.90;99111.38;4993684;28;20401;-75
2023/01/09 09:53:17;;;;;;;2.13;0.80;;;;;;;10.64;63.68;99114.34;5011256;28;20416;-75
2023/01/09 09:55:45;;;;;;;2.45;0.55;;;;;;;10.71;63.30;99103.19;5008499;28;20880;-75
2023/01/09 09:58:10;;;;;;;2.70;0.85;;;;;;;10.94;63.35;99095.22;4993731;28;20418;-72
2023/01/09 10:00:36;;;;;;;2.75;0.52;;;;;;;11.22;62.41;99095.59;4994417;28;20409;-75
2023/01/09 10:03:16;;;;;;;2.60;1.05;;;;;;;11.33;62.08;99092.50;5020609;28;20449;-74
2023/01/09 10:05:47;;;;;;;1.50;0.40;;;;;;;11.55;61.07;99083.94;4995848;28;20421;-74
2023/01/09 10:08:36;;;;;;;2.30;0.87;;;;;;;11.39;60.86;99072.38;5005387;28;20448;-74
2023/01/09 10:11:02;;;;;;;1.40;0.60;;;;;;;11.52;61.24;99079.09;5004748;28;20958;-74
2023/01/09 10:16:47;;;;;;;4.15;1.00;;;;;;;11.62;60.11;99083.63;5004075;28;20431;-74
2023/01/09 10:19:49;;;;;;;1.42;0.60;;;;;;;11.39;61.15;99077.81;4994378;28;20473;-75
2023/01/09 10:22:33;;;;;;;5.22;0.70;;;;;;;11.26;61.58;99078.47;5001644;28;20444;-74
2023/01/09 10:25:18;;;;;;;2.35;0.52;;;;;;;11.42;60.62;99093.56;5004510;28;20420;-74
2023/01/09 10:28:34;;;;;;;1.33;0.50;;;;;;;11.54;60.28;99085.03;5004786;28;20532;-74
2023/01/09 10:31:08;;;;;;;2.13;0.52;;;;;;;11.59;60.19;99090.41;4972806;28;20424;-74
2023/01/09 10:34:18;;;;;;;2.50;0.65;;;;;;;11.70;59.98;99094.69;4984762;28;20907;-74
2023/01/09 10:37:04;;;;;;;1.17;0.53;;;;;;;11.58;59.74;99083.38;4996069;28;20925;-75
2023/01/09 10:39:48;;;;;;;2.22;0.80;;;;;;;11.32;60.07;99084.66;5003784;28;20550;-75
2023/01/09 10:42:35;;;;;;;3.58;0.60;;;;;;;11.27;60.62;99079.28;5003628;28;20472;-75
2023/01/09 10:45:22;;;;;;;3.20;1.10;;;;;;;11.26;60.49;99089.31;5002895;28;20482;-74
2023/01/09 10:47:47;;;;;;;3.05;0.60;;;;;;;11.43;60.45;99088.91;5003067;28;20417;-75
2023/01/09 10:50:18;;;;;;;4.97;0.67;;;;;;;11.52;60.28;99070.94;5003458;28;20899;-75
2023/01/09 10:52:44;;;;;;;3.22;0.90;;;;;;;11.59;59.97;99092.31;5002090;28;20423;-74
2023/01/09 10:55:24;;;;;;;3.08;0.75;;;;;;;11.67;60.10;99075.41;5002146;28;20494;-74
2023/01/09 10:57:56;;;;;;;3.95;0.80;;;;;;;11.66;60.07;99073.78;5003186;28;20499;-75
2023/01/09 11:00:23;;;;;;;3.60;0.70;;;;;;;11.59;59.92;99073.34;4987682;28;20893;-74
2023/01/09 11:02:50;;;;;;;5.50;0.88;;;;;;;11.59;60.32;99087.69;5002612;28;20474;-75
2023/01/09 11:05:23;;;;;;;5.03;0.97;;;;;;;11.67;59.91;99067.28;5003879;28;20430;-74
2023/01/09 11:07:54;;;;;;;3.50;0.80;;;;;;;11.56;60.44;99088.25;5010920;28;20404;-74
2023/01/09 11:10:19;;;;;;;4.23;1.07;;;;;;;11.41;60.98;99083.78;4997573;28;20395;-74
2023/01/09 11:12:45;;;;;;;2.70;0.90;;;;;;;11.24;62.04;99079.84;5009870;28;20404;-75
2023/01/09 11:15:19;;;;;;;3.53;0.95;;;;;;;11.14;62.51;99093.47;5005329;28;20495;-75
2023/01/09 11:17:46;;;;;;;1.75;0.80;;;;;;;10.96;63.65;99094.13;5001909;28;20911;-75
2023/01/09 11:20:21;;;;;;;1.98;0.57;;;;;;;10.78;65.55;99095.59;5001647;28;20907;-74
2023/01/09 11:22:52;;;;;;;2.85;0.68;;;;;;;10.62;67.74;99118.41;5002518;28;20422;-74
2023/01/09 11:25:20;;;;;;;2.83;0.68;;;;;;;10.57;68.68;99113.03;5000668;28;20418;-74
2023/01/09 11:28:00;;;;;;;2.50;0.60;;;;;;;10.47;69.67;99130.13;5002678;28;20405;-74
2023/01/09 11:30:26;;;;;;;3.70;0.80;;;;;;;10.18;71.82;99124.50;5001626;28;20413;-74
2023/01/09 11:32:53;;;;;;;5.95;1.10;;;;;;;10.05;73.49;99129.66;5004254;28;20737;-74
2023/01/09 11:35:26;;;;;;;4.70;0.77;;;;;;;10.07;73.88;99127.50;5009237;28;20445;-74
2023/01/09 11:38:10;;;;;;;3.47;0.77;;;;;;;10.10;73.66;99126.94;5001259;28;20853;-74
2023/01/09 11:40:45;;;;;;;5.60;0.77;;;;;;;10.24;73.78;99134.25;5007091;28;20455;-74
2023/01/09 11:43:14;;;;;;;4.40;0.82;;;;;;;10.17;73.92;99125.63;5012238;28;20439;-74
2023/01/09 11:45:46;;;;;;;6.78;1.23;;;;;;;10.20;74.59;99133.19;5015156;28;20406;-74
2023/01/09 11:48:31;;;;;;;2.80;0.80;;;;;;;10.20;74.48;99118.84;5012756;28;20466;-74
2023/01/09 11:50:58;;;;;;;4.38;0.70;;;;;;;10.23;74.42;99123.69;5015610;28;20395;-74
2023/01/09 11:53:24;;;;;;;7.37;1.10;;;;;;;10.24;74.11;99120.72;5015445;28;20400;-74
2023/01/09 11:55:57;;;;;;;3.60;1.00;;;;;;;10.19;74.30;99114.50;5013939;28;20439;-74
2023/01/09 11:58:23;;;;;;;3.53;0.80;;;;;;;10.08;74.36;99102.84;4994923;28;20420;-74
2023/01/09 12:01:03;;;;;;;5.20;0.75;;;;;;;10.16;74.18;99090.69;5015080;28;20403;-74